Time;durP1;ratioP1;P1;durP2;ratioP2;P2;SDS_P1;SDS_P2;PMS_P1;PMS_P2;Temp;Humidity;BMP_temperature;BMP_pressure;BME280_temperature;BME280_humidity;BME280_pressure;Samples;Min_cycle;Max_cycle;Signal;HPM_P1;HPM_P2
2022/11/13 00:00:36;;;;;;;7.15;5.15;;;12.30;84.10;;;;;;5093530;28;20055;-58
2022/11/13 00:03:02;;;;;;;7.28;5.03;;;12.20;84.20;;;;;;5091884;28;20372;-57
2022/11/13 00:05:28;;;;;;;7.82;5.68;;;12.20;84.20;;;;;;5094209;28;20053;-58
2022/11/13 00:07:53;;;;;;;6.93;5.07;;;12.20;84.30;;;;;;5094311;28;20118;-58
2022/11/13 00:10:19;;;;;;;6.90;5.28;;;12.20;84.40;;;;;;5091577;28;20700;-58
2022/11/13 00:12:45;;;;;;;6.38;5.38;;;12.20;84.40;;;;;;5093280;28;20028;-58
2022/11/13 00:15:10;;;;;;;6.63;5.38;;;12.20;84.50;;;;;;5093413;28;20050;-57
2022/11/13 00:17:36;;;;;;;7.00;4.95;;;12.30;84.60;;;;;;5093794;28;20039;-58
2022/11/13 00:20:02;;;;;;;7.20;5.78;;;12.20;84.60;;;;;;5093760;28;20035;-57
2022/11/13 00:22:28;;;;;;;8.85;5.95;;;12.20;84.70;;;;;;5091505;28;20026;-59
2022/11/13 00:24:53;;;;;;;7.47;5.57;;;12.20;84.60;;;;;;5093598;28;20103;-58
2022/11/13 00:27:19;;;;;;;8.02;5.78;;;12.20;84.70;;;;;;5093679;28;20024;-58
2022/11/13 00:29:45;;;;;;;7.18;5.90;;;12.20;84.70;;;;;;5093388;28;20103;-59
2022/11/13 00:32:10;;;;;;;7.10;5.78;;;12.20;84.80;;;;;;5092213;28;20202;-57
2022/11/13 00:34:36;;;;;;;7.53;5.82;;;12.20;84.80;;;;;;5093514;28;20493;-57
2022/11/13 00:37:01;;;;;;;7.47;5.85;;;12.30;85.10;;;;;;5093364;28;20031;-58
2022/11/13 00:39:27;;;;;;;6.60;5.45;;;12.30;85.10;;;;;;5091345;28;20024;-58
2022/11/13 00:41:53;;;;;;;7.15;5.90;;;12.30;85.20;;;;;;5090644;28;20020;-58
2022/11/13 00:44:18;;;;;;;7.78;5.75;;;12.20;85.30;;;;;;5091379;28;20085;-57
2022/11/13 00:46:44;;;;;;;6.93;5.45;;;12.20;85.30;;;;;;5092267;28;20035;-58
2022/11/13 00:49:10;;;;;;;6.68;5.10;;;12.20;85.40;;;;;;5090980;28;20028;-58
2022/11/13 00:51:35;;;;;;;7.38;5.53;;;12.20;85.50;;;;;;5083403;28;20062;-58
2022/11/13 00:54:01;;;;;;;7.35;5.68;;;12.20;85.60;;;;;;5092230;28;20379;-58
2022/11/13 00:56:27;;;;;;;7.28;5.80;;;12.20;85.70;;;;;;5091484;28;20038;-57
2022/11/13 00:58:52;;;;;;;7.50;5.90;;;12.30;85.90;;;;;;5092089;28;20028;-58
2022/11/13 01:01:19;;;;;;;8.02;6.40;;;12.20;85.80;;;;;;5091828;28;20032;-58
2022/11/13 01:03:45;;;;;;;8.15;6.40;;;12.20;85.90;;;;;;5091770;28;20460;-58
2022/11/13 01:06:18;;;;;;;8.88;6.35;;;12.20;86.00;;;;;;5092129;28;20024;-57
2022/11/13 01:08:44;;;;;;;8.43;6.30;;;12.20;86.10;;;;;;5093116;28;20024;-59
2022/11/13 01:11:13;;;;;;;7.72;5.93;;;12.20;86.10;;;;;;5091646;28;20019;-58
2022/11/13 01:13:40;;;;;;;7.78;5.05;;;12.20;86.20;;;;;;5091430;28;20085;-58
2022/11/13 01:16:08;;;;;;;9.07;6.53;;;12.30;86.30;;;;;;5091074;28;20079;-57
2022/11/13 01:18:35;;;;;;;7.30;5.47;;;12.20;86.30;;;;;;5092181;28;20144;-58
2022/11/13 01:21:11;;;;;;;6.40;5.07;;;12.20;86.40;;;;;;5089416;28;20034;-57
2022/11/13 01:23:37;;;;;;;5.57;4.63;;;12.20;86.40;;;;;;5091411;28;20020;-58
2022/11/13 01:26:05;;;;;;;7.72;6.40;;;12.20;86.40;;;;;;5090121;28;20095;-58
2022/11/13 01:28:31;;;;;;;5.63;5.03;;;12.30;86.60;;;;;;5091232;28;20031;-58
2022/11/13 01:30:56;;;;;;;7.88;5.28;;;12.30;86.50;;;;;;5091573;28;20387;-58
2022/11/13 01:33:22;;;;;;;6.63;4.80;;;12.20;86.60;;;;;;5090465;28;20119;-58
2022/11/13 01:35:48;;;;;;;7.90;6.38;;;12.30;86.50;;;;;;5092010;28;20035;-58
2022/11/13 01:38:13;;;;;;;6.95;6.07;;;12.30;86.60;;;;;;5091874;28;20040;-58
2022/11/13 01:40:46;;;;;;;7.82;6.22;;;12.30;86.60;;;;;;5090169;28;20059;-58
2022/11/13 01:43:30;;;;;;;6.95;5.65;;;12.30;86.70;;;;;;5090956;28;20513;-58
2022/11/13 01:45:58;;;;;;;6.65;5.20;;;12.30;86.60;;;;;;5088146;28;20111;-58
2022/11/13 01:48:33;;;;;;;9.05;6.90;;;12.30;86.70;;;;;;5092295;28;20432;-58
2022/11/13 01:50:58;;;;;;;7.53;5.78;;;12.20;86.80;;;;;;5089740;28;20031;-58
2022/11/13 01:53:25;;;;;;;8.90;7.22;;;12.20;87.00;;;;;;5091759;28;20024;-57
2022/11/13 01:55:51;;;;;;;8.45;6.13;;;12.20;87.00;;;;;;5091092;28;20024;-58
2022/11/13 01:58:17;;;;;;;7.85;5.95;;;12.20;87.00;;;;;;5090911;28;20543;-57
2022/11/13 02:00:42;;;;;;;7.35;5.88;;;12.20;87.00;;;;;;5090398;28;20081;-58
2022/11/13 02:03:08;;;;;;;6.75;5.50;;;12.10;87.10;;;;;;5091836;28;20059;-58
2022/11/13 02:05:34;;;;;;;6.75;5.63;;;12.10;87.00;;;;;;5090004;28;20036;-56
2022/11/13 02:08:00;;;;;;;5.65;4.60;;;12.10;87.30;;;;;;5088915;28;20024;-56
2022/11/13 02:10:26;;;;;;;6.43;4.88;;;12.10;87.20;;;;;;5087551;28;20331;-58
2022/11/13 02:12:52;;;;;;;6.68;5.03;;;12.10;87.30;;;;;;5091385;28;20057;-56
2022/11/13 02:15:22;;;;;;;7.63;5.05;;;12.10;87.30;;;;;;5091402;28;20024;-58
2022/11/13 02:17:52;;;;;;;6.90;5.30;;;12.10;87.40;;;;;;5091981;28;20092;-56
2022/11/13 02:20:43;;;;;;;8.07;5.25;;;12.10;87.40;;;;;;5082545;28;20089;-58
2022/11/13 02:23:29;;;;;;;7.13;5.60;;;12.10;87.40;;;;;;5089742;28;20028;-58
2022/11/13 02:25:55;;;;;;;5.85;4.38;;;12.10;87.30;;;;;;5090058;28;20027;-58
2022/11/13 02:28:21;;;;;;;4.85;3.75;;;12.10;87.50;;;;;;5091202;28;20024;-58
2022/11/13 02:30:46;;;;;;;5.53;4.15;;;12.10;88.00;;;;;;5093547;28;20111;-58
2022/11/13 02:33:39;;;;;;;5.95;4.05;;;12.00;87.50;;;;;;5095645;28;20024;-58
2022/11/13 02:36:07;;;;;;;5.45;4.45;;;12.00;87.20;;;;;;5091985;28;20403;-57
2022/11/13 02:38:35;;;;;;;4.55;3.45;;;12.00;87.50;;;;;;5095627;28;20395;-58
2022/11/13 02:41:00;;;;;;;4.50;3.65;;;12.00;87.50;;;;;;5093405;28;20067;-58
2022/11/13 02:43:26;;;;;;;3.97;3.13;;;12.00;87.50;;;;;;5094341;28;20059;-58
2022/11/13 02:45:52;;;;;;;4.75;3.58;;;12.00;87.30;;;;;;5094350;28;20042;-57
2022/11/13 02:48:17;;;;;;;4.10;3.30;;;12.10;87.40;;;;;;5095039;28;20024;-58
2022/11/13 02:50:43;;;;;;;4.00;3.33;;;12.10;87.40;;;;;;5094231;28;20051;-57
2022/11/13 02:53:08;;;;;;;3.35;3.03;;;12.10;87.30;;;;;;5094312;28;20035;-58
2022/11/13 02:55:34;;;;;;;3.65;2.72;;;12.00;87.10;;;;;;5080978;28;20515;-58
2022/11/13 02:58:00;;;;;;;3.20;2.60;;;12.00;87.20;;;;;;5094065;28;20371;-56
2022/11/13 03:00:26;;;;;;;3.33;2.60;;;12.00;87.10;;;;;;5093660;28;20035;-58
2022/11/13 03:02:51;;;;;;;4.13;2.60;;;12.00;87.10;;;;;;5094581;28;20042;-57
2022/11/13 03:05:17;;;;;;;2.78;2.38;;;12.00;87.20;;;;;;5093963;28;20024;-58
2022/11/13 03:07:43;;;;;;;2.38;2.17;;;12.00;87.20;;;;;;5094510;28;20461;-58
2022/11/13 03:10:09;;;;;;;2.25;2.00;;;11.90;87.00;;;;;;5093045;28;20012;-58
2022/11/13 03:12:36;;;;;;;2.55;2.35;;;11.90;87.00;;;;;;5094346;28;20028;-58
2022/11/13 03:15:01;;;;;;;2.30;2.10;;;11.90;86.90;;;;;;5089489;28;20030;-57
2022/11/13 03:17:30;;;;;;;2.30;2.10;;;11.90;87.10;;;;;;5094027;28;20048;-58
2022/11/13 03:19:55;;;;;;;3.55;2.83;;;11.90;87.20;;;;;;5092472;28;20032;-57
2022/11/13 03:22:21;;;;;;;2.30;2.00;;;11.90;87.10;;;;;;5088212;28;20032;-58
2022/11/13 03:24:47;;;;;;;2.05;1.88;;;11.90;87.20;;;;;;5092668;28;20028;-57
2022/11/13 03:27:12;;;;;;;2.40;2.20;;;11.90;87.20;;;;;;5094022;28;20366;-57
2022/11/13 03:29:38;;;;;;;3.25;2.60;;;11.90;87.20;;;;;;5093082;28;20510;-58
2022/11/13 03:32:04;;;;;;;3.50;2.72;;;11.90;87.20;;;;;;5093605;28;20039;-58
2022/11/13 03:34:29;;;;;;;3.00;2.30;;;11.90;87.20;;;;;;5093280;28;20103;-58
2022/11/13 03:36:55;;;;;;;2.50;2.30;;;11.90;87.20;;;;;;5094396;28;20039;-58
2022/11/13 03:39:21;;;;;;;2.90;2.60;;;11.90;87.00;;;;;;5093492;28;20066;-58
2022/11/13 03:41:46;;;;;;;2.92;2.60;;;11.90;87.00;;;;;;5092052;28;20072;-58
2022/11/13 03:44:12;;;;;;;3.20;2.65;;;11.90;86.90;;;;;;5092134;28;20085;-58
2022/11/13 03:46:38;;;;;;;2.83;2.40;;;11.90;86.70;;;;;;5093737;28;20032;-58
2022/11/13 03:49:03;;;;;;;3.05;2.50;;;11.90;86.70;;;;;;5093267;28;20035;-57
2022/11/13 03:51:29;;;;;;;2.40;2.20;;;11.90;86.60;;;;;;5093527;28;20471;-59
2022/11/13 03:53:55;;;;;;;2.72;2.42;;;11.90;86.50;;;;;;5093946;28;20031;-58
2022/11/13 03:56:20;;;;;;;2.42;2.22;;;11.90;86.40;;;;;;5093519;28;20048;-57
2022/11/13 03:58:46;;;;;;;2.65;2.10;;;11.90;86.30;;;;;;5093140;28;20035;-59
2022/11/13 04:01:11;;;;;;;4.00;2.72;;;11.90;86.20;;;;;;5092529;28;20479;-57
2022/11/13 04:03:37;;;;;;;3.63;2.85;;;11.90;86.10;;;;;;5092862;28;20507;-58
2022/11/13 04:06:03;;;;;;;3.42;2.63;;;11.90;86.00;;;;;;5094108;28;20651;-58
2022/11/13 04:08:28;;;;;;;2.60;2.40;;;11.90;85.80;;;;;;5093917;28;20035;-58
2022/11/13 04:10:54;;;;;;;3.33;2.80;;;11.90;85.80;;;;;;5092357;28;20490;-58
2022/11/13 04:13:20;;;;;;;3.75;2.80;;;11.90;85.80;;;;;;5092711;28;20109;-58
2022/11/13 04:15:46;;;;;;;2.50;2.30;;;11.90;85.80;;;;;;5092836;28;20062;-58
2022/11/13 04:18:12;;;;;;;2.40;2.20;;;11.90;85.70;;;;;;5091288;28;20024;-57
2022/11/13 04:20:37;;;;;;;2.53;2.30;;;11.90;85.50;;;;;;5091669;28;20035;-58
2022/11/13 04:23:07;;;;;;;2.97;2.60;;;12.00;85.60;;;;;;5092988;28;20032;-58
2022/11/13 04:25:33;;;;;;;3.13;2.40;;;11.90;85.50;;;;;;5093520;28;20027;-58
2022/11/13 04:27:58;;;;;;;2.65;2.45;;;12.00;85.50;;;;;;5092249;28;20464;-57
2022/11/13 04:30:24;;;;;;;2.45;2.25;;;12.00;85.40;;;;;;5092572;28;20024;-58
2022/11/13 04:32:50;;;;;;;3.25;2.78;;;12.00;85.30;;;;;;5080447;28;20378;-58
2022/11/13 04:35:15;;;;;;;3.17;2.67;;;12.00;85.20;;;;;;5092744;28;20056;-58
2022/11/13 04:37:41;;;;;;;3.25;2.80;;;12.00;85.30;;;;;;5092551;28;20103;-58
2022/11/13 04:40:07;;;;;;;3.22;2.70;;;12.00;85.20;;;;;;5090909;28;20032;-57
2022/11/13 04:42:48;;;;;;;2.95;2.22;;;12.00;85.30;;;;;;5092548;28;20034;-57
2022/11/13 04:45:18;;;;;;;2.77;2.40;;;12.00;85.20;;;;;;5092597;28;20571;-58
2022/11/13 04:47:45;;;;;;;2.58;2.42;;;12.00;85.10;;;;;;5091467;28;20021;-58
2022/11/13 04:50:11;;;;;;;3.38;2.53;;;12.00;85.00;;;;;;5091275;28;20050;-57
2022/11/13 04:52:37;;;;;;;2.83;2.30;;;12.00;85.70;;;;;;5092878;28;20063;-56
2022/11/13 04:55:03;;;;;;;2.55;2.30;;;12.00;85.00;;;;;;5092127;28;20063;-57
2022/11/13 04:57:29;;;;;;;2.75;2.40;;;12.00;84.90;;;;;;5091871;28;20024;-58
2022/11/13 04:59:55;;;;;;;3.65;3.22;;;12.00;84.90;;;;;;5090896;28;20081;-57
2022/11/13 05:02:20;;;;;;;2.95;2.65;;;12.00;84.80;;;;;;5092030;28;20356;-58
2022/11/13 05:04:46;;;;;;;2.97;2.45;;;12.00;84.80;;;;;;5091550;28;20031;-57
2022/11/13 05:07:12;;;;;;;2.65;2.33;;;12.00;84.70;;;;;;5095645;28;20038;-58
2022/11/13 05:09:37;;;;;;;2.50;2.30;;;12.00;84.80;;;;;;5091237;28;20413;-57
2022/11/13 05:12:06;;;;;;;2.13;2.00;;;12.00;84.80;;;;;;5091489;28;20495;-58
2022/11/13 05:14:36;;;;;;;2.40;2.20;;;12.00;84.80;;;;;;5091687;28;20475;-59
2022/11/13 05:17:02;;;;;;;3.20;2.47;;;12.00;84.80;;;;;;5091543;28;20044;-58
2022/11/13 05:19:28;;;;;;;2.03;1.90;;;12.00;84.80;;;;;;5090150;28;20066;-58
2022/11/13 05:21:53;;;;;;;3.10;2.50;;;12.00;84.80;;;;;;5090566;28;20028;-58
2022/11/13 05:24:19;;;;;;;2.50;2.30;;;12.00;84.80;;;;;;5092524;28;20107;-56
2022/11/13 05:26:45;;;;;;;2.20;2.00;;;12.00;84.80;;;;;;5091893;28;20109;-58
2022/11/13 05:29:10;;;;;;;2.55;2.35;;;12.00;84.90;;;;;;5091992;28;20082;-57
2022/11/13 05:31:36;;;;;;;2.58;2.30;;;12.00;84.80;;;;;;5090096;28;20024;-59
2022/11/13 05:34:03;;;;;;;2.72;2.33;;;12.00;84.90;;;;;;5091316;28;21109;-58
2022/11/13 05:36:29;;;;;;;3.58;3.17;;;12.00;84.90;;;;;;5090462;28;20096;-57
2022/11/13 05:38:54;;;;;;;4.80;3.33;;;12.00;85.00;;;;;;5091750;28;20478;-58
2022/11/13 05:41:22;;;;;;;3.58;2.85;;;12.00;85.10;;;;;;5089881;28;20059;-57
2022/11/13 05:43:48;;;;;;;3.95;3.00;;;12.00;85.10;;;;;;5091882;28;20024;-57
2022/11/13 05:46:16;;;;;;;4.85;2.97;;;12.00;85.30;;;;;;5091358;28;20077;-58
2022/11/13 05:48:43;;;;;;;3.58;2.88;;;12.00;85.30;;;;;;5090457;28;20131;-58
2022/11/13 05:51:14;;;;;;;4.35;3.05;;;12.00;85.10;;;;;;5091665;28;20032;-57
2022/11/13 05:53:41;;;;;;;3.55;3.10;;;12.00;85.10;;;;;;5091747;28;20131;-58
2022/11/13 05:56:13;;;;;;;3.20;2.90;;;12.00;85.20;;;;;;5091359;28;20387;-58
2022/11/13 05:58:40;;;;;;;4.05;3.22;;;12.00;85.30;;;;;;5089515;28;20032;-58
2022/11/13 06:01:13;;;;;;;4.70;3.60;;;12.00;85.30;;;;;;5090917;28;20046;-56
2022/11/13 06:03:39;;;;;;;5.07;3.78;;;12.00;85.30;;;;;;5090991;28;20023;-58
2022/11/13 06:06:07;;;;;;;4.15;3.05;;;12.00;86.00;;;;;;5091593;28;20035;-59
2022/11/13 06:08:33;;;;;;;4.18;3.00;;;12.00;85.40;;;;;;5087330;28;20386;-56
2022/11/13 06:11:04;;;;;;;4.03;3.00;;;12.00;86.00;;;;;;5088793;28;20020;-57
2022/11/13 06:13:30;;;;;;;3.45;3.00;;;12.00;85.50;;;;;;5090733;28;20024;-58
2022/11/13 06:16:01;;;;;;;4.03;3.28;;;12.00;85.40;;;;;;5090728;28;20170;-58
2022/11/13 06:18:27;;;;;;;4.05;3.00;;;12.00;85.40;;;;;;5089661;28;20031;-58
2022/11/13 06:20:53;;;;;;;5.10;2.95;;;12.00;85.40;;;;;;5089999;28;20066;-59
2022/11/13 06:23:18;;;;;;;4.88;3.38;;;12.00;85.20;;;;;;5090983;28;20103;-58
2022/11/13 06:25:44;;;;;;;3.13;2.58;;;12.10;85.30;;;;;;5089715;28;20382;-57
2022/11/13 06:28:10;;;;;;;4.10;2.75;;;12.10;85.20;;;;;;5089903;28;20023;-57
2022/11/13 06:30:36;;;;;;;3.90;2.90;;;12.10;85.20;;;;;;5090711;28;20055;-57
2022/11/13 06:33:01;;;;;;;3.53;2.95;;;12.10;85.10;;;;;;5090905;28;20105;-58
2022/11/13 06:35:27;;;;;;;4.07;3.00;;;12.20;85.10;;;;;;5089057;28;20531;-58
2022/11/13 06:37:55;;;;;;;4.43;3.20;;;12.20;85.00;;;;;;5091727;28;20035;-57
2022/11/13 06:40:21;;;;;;;4.43;3.10;;;12.30;84.70;;;;;;5087534;28;20039;-58
2022/11/13 06:42:47;;;;;;;3.65;2.97;;;12.20;84.70;;;;;;5091063;28;20040;-58
2022/11/13 06:45:12;;;;;;;3.40;3.00;;;12.20;84.70;;;;;;5090532;28;20032;-58
2022/11/13 06:47:38;;;;;;;4.97;3.47;;;12.30;84.60;;;;;;5090787;28;20071;-58
2022/11/13 06:50:05;;;;;;;6.47;3.42;;;12.20;84.40;;;;;;5088881;28;20020;-57
2022/11/13 06:52:31;;;;;;;3.33;2.67;;;12.20;84.40;;;;;;5091076;28;20024;-58
2022/11/13 06:54:56;;;;;;;3.65;2.75;;;12.30;84.40;;;;;;5091275;28;20089;-59
2022/11/13 06:57:22;;;;;;;4.45;3.20;;;12.30;84.30;;;;;;5090461;28;20020;-57
2022/11/13 06:59:48;;;;;;;4.03;3.05;;;12.30;84.30;;;;;;5090799;28;20035;-58
2022/11/13 07:02:13;;;;;;;3.03;2.70;;;12.40;84.10;;;;;;5089937;28;20032;-58
2022/11/13 07:04:39;;;;;;;4.25;3.40;;;12.40;84.20;;;;;;5090416;28;20024;-58
2022/11/13 07:07:04;;;;;;;4.60;3.20;;;12.40;84.10;;;;;;5088920;28;20059;-58
2022/11/13 07:09:30;;;;;;;3.15;2.80;;;12.40;84.60;;;;;;5089544;28;20103;-56
2022/11/13 07:11:56;;;;;;;4.72;3.03;;;12.40;83.90;;;;;;5089935;28;20047;-57
2022/11/13 07:14:21;;;;;;;4.10;3.15;;;12.40;83.90;;;;;;5094240;28;20027;-58
2022/11/13 07:16:47;;;;;;;3.55;3.00;;;12.50;83.90;;;;;;5093530;28;20048;-58
2022/11/13 07:19:13;;;;;;;4.03;3.17;;;12.50;84.00;;;;;;5094132;28;20123;-57
2022/11/13 07:21:38;;;;;;;3.88;3.17;;;12.50;83.90;;;;;;5093864;28;20031;-59
2022/11/13 07:24:05;;;;;;;4.43;3.17;;;12.60;83.80;;;;;;5094510;28;20031;-58
2022/11/13 07:26:30;;;;;;;3.83;3.28;;;12.60;83.80;;;;;;5092728;28;20149;-58
2022/11/13 07:28:56;;;;;;;3.83;2.95;;;12.60;83.70;;;;;;5089420;28;20102;-57
2022/11/13 07:31:22;;;;;;;4.70;3.65;;;12.60;83.60;;;;;;5093478;28;20440;-57
2022/11/13 07:33:48;;;;;;;4.30;3.30;;;12.60;83.50;;;;;;5093941;28;20113;-59
2022/11/13 07:36:14;;;;;;;3.25;2.85;;;12.70;83.40;;;;;;5089924;28;20038;-58
2022/11/13 07:38:40;;;;;;;4.55;3.08;;;12.70;83.50;;;;;;5092221;28;20031;-58
2022/11/13 07:41:06;;;;;;;4.05;3.15;;;12.70;83.40;;;;;;5094452;28;20032;-58
2022/11/13 07:43:32;;;;;;;3.53;2.75;;;12.80;83.40;;;;;;5093438;28;20035;-58
2022/11/13 07:45:59;;;;;;;3.80;3.25;;;12.80;83.30;;;;;;5093090;28;20028;-59
2022/11/13 07:48:26;;;;;;;4.07;3.10;;;12.80;83.10;;;;;;5093595;28;20446;-58
2022/11/13 07:50:52;;;;;;;3.90;3.17;;;12.80;83.00;;;;;;5087743;28;20031;-58
2022/11/13 07:53:19;;;;;;;3.65;3.00;;;12.80;82.90;;;;;;5088189;28;20043;-58
2022/11/13 07:55:45;;;;;;;3.33;2.92;;;12.80;82.90;;;;;;5092896;28;20024;-58
2022/11/13 07:58:11;;;;;;;3.92;3.00;;;12.90;82.90;;;;;;5093539;28;20383;-58
2022/11/13 08:00:37;;;;;;;4.53;3.22;;;12.90;82.70;;;;;;5093222;28;20032;-58
2022/11/13 08:03:08;;;;;;;4.38;3.40;;;12.90;82.60;;;;;;5093503;28;20564;-57
2022/11/13 08:05:34;;;;;;;3.57;2.97;;;13.00;82.50;;;;;;5093264;28;20032;-58
2022/11/13 08:07:59;;;;;;;3.80;2.97;;;13.00;82.50;;;;;;5093182;28;20623;-58
2022/11/13 08:10:25;;;;;;;4.03;3.10;;;13.00;82.50;;;;;;5092449;28;20020;-58
2022/11/13 08:12:59;;;;;;;3.97;3.28;;;13.00;82.30;;;;;;5092746;28;20077;-58
2022/11/13 08:15:24;;;;;;;3.80;3.22;;;13.10;82.30;;;;;;5092104;28;20031;-58
2022/11/13 08:17:58;;;;;;;3.83;3.00;;;13.10;82.20;;;;;;5092353;28;20040;-58
2022/11/13 08:20:25;;;;;;;3.58;3.22;;;13.10;82.10;;;;;;5092561;28;20079;-58
2022/11/13 08:22:51;;;;;;;3.45;2.90;;;13.10;81.90;;;;;;5092314;28;20501;-58
2022/11/13 08:25:17;;;;;;;5.32;3.10;;;13.10;81.70;;;;;;5091260;28;20636;-57
2022/11/13 08:27:43;;;;;;;3.33;3.03;;;13.20;81.70;;;;;;5091979;28;20031;-58
2022/11/13 08:30:09;;;;;;;3.80;3.25;;;13.20;81.60;;;;;;5084172;28;20025;-57
2022/11/13 08:32:35;;;;;;;3.65;3.33;;;13.20;81.50;;;;;;5092386;28;20031;-58
2022/11/13 08:35:01;;;;;;;4.55;3.28;;;13.20;81.30;;;;;;5092185;28;20103;-55
2022/11/13 08:37:27;;;;;;;4.07;3.15;;;13.20;81.40;;;;;;5092880;28;20464;-58
2022/11/13 08:39:53;;;;;;;4.30;3.45;;;13.20;81.40;;;;;;5081292;28;20031;-58
2022/11/13 08:42:18;;;;;;;3.20;2.72;;;13.20;81.20;;;;;;5091610;28;20095;-58
2022/11/13 08:44:44;;;;;;;3.92;3.25;;;13.20;81.10;;;;;;5090587;28;20073;-58
2022/11/13 08:47:10;;;;;;;5.22;3.90;;;13.20;81.40;;;;;;5092240;28;20482;-58
2022/11/13 08:49:35;;;;;;;4.88;4.03;;;13.30;81.00;;;;;;5092229;28;20032;-58
2022/11/13 08:52:01;;;;;;;3.97;3.58;;;13.30;80.70;;;;;;5092749;28;20492;-57
2022/11/13 08:54:26;;;;;;;4.43;3.70;;;13.30;80.60;;;;;;5091164;28;20024;-58
2022/11/13 08:56:52;;;;;;;3.97;3.50;;;13.30;80.60;;;;;;5092223;28;20046;-60
2022/11/13 08:59:18;;;;;;;3.92;3.53;;;13.40;80.40;;;;;;5092152;28;20447;-59
2022/11/13 09:01:43;;;;;;;4.20;3.75;;;13.40;80.30;;;;;;5091144;28;20070;-59
2022/11/13 09:04:09;;;;;;;3.97;3.58;;;13.40;80.10;;;;;;5092024;28;20089;-58
2022/11/13 09:06:34;;;;;;;4.22;3.70;;;13.40;80.00;;;;;;5090286;28;20028;-59
2022/11/13 09:09:00;;;;;;;4.80;4.30;;;13.40;79.90;;;;;;5091929;28;20450;-60
2022/11/13 09:11:26;;;;;;;5.32;4.53;;;13.40;80.40;;;;;;5091118;28;20028;-59
2022/11/13 09:13:53;;;;;;;4.75;4.25;;;13.50;79.50;;;;;;5089676;28;20138;-59
2022/11/13 09:16:19;;;;;;;4.32;3.75;;;13.50;79.30;;;;;;5090772;28;20043;-59
2022/11/13 09:18:47;;;;;;;4.53;4.00;;;13.50;79.20;;;;;;5091731;28;20031;-60
2022/11/13 09:21:13;;;;;;;4.32;3.78;;;13.50;79.20;;;;;;5091341;28;20032;-59
2022/11/13 09:23:38;;;;;;;4.13;3.50;;;13.50;79.10;;;;;;5091128;28;20040;-59
2022/11/13 09:26:04;;;;;;;4.53;3.75;;;13.50;79.00;;;;;;5091525;28;20032;-58
2022/11/13 09:28:30;;;;;;;4.18;3.78;;;13.50;78.90;;;;;;5091335;28;20459;-59
2022/11/13 09:30:55;;;;;;;4.30;3.90;;;13.50;78.80;;;;;;5090428;28;20027;-59
2022/11/13 09:33:21;;;;;;;4.18;3.78;;;13.60;78.90;;;;;;5091175;28;20056;-59
2022/11/13 09:35:46;;;;;;;4.22;3.50;;;13.60;78.60;;;;;;5090808;28;20099;-60
2022/11/13 09:38:14;;;;;;;4.75;3.53;;;13.60;78.60;;;;;;5091819;28;20031;-58
2022/11/13 09:40:54;;;;;;;4.10;3.60;;;13.60;78.50;;;;;;5085804;28;20133;-60
2022/11/13 09:43:35;;;;;;;5.20;4.35;;;13.60;78.40;;;;;;5090353;28;20156;-59
2022/11/13 09:46:06;;;;;;;6.05;4.68;;;13.60;78.50;;;;;;5086019;28;20467;-59
2022/11/13 09:48:40;;;;;;;5.40;4.85;;;13.60;78.40;;;;;;5088969;28;20115;-59
2022/11/13 09:51:28;;;;;;;4.38;3.42;;;13.60;78.40;;;;;;5090288;28;20027;-59
2022/11/13 09:53:54;;;;;;;5.30;3.83;;;13.70;79.10;;;;;;5090639;28;20387;-60
2022/11/13 09:56:39;;;;;;;4.25;3.72;;;13.70;78.50;;;;;;5090856;28;20024;-59
2022/11/13 09:59:30;;;;;;;4.70;4.00;;;13.70;78.60;;;;;;5079723;28;20038;-58
2022/11/13 12:16:18;;;;;;;3.55;3.25;;;12.40;78.40;;;;;;5136244;27;20889;-57
2022/11/13 12:18:47;;;;;;;3.03;2.72;;;13.10;80.10;;;;;;5146108;27;20458;-56
2022/11/13 12:21:34;;;;;;;3.40;3.10;;;13.10;80.20;;;;;;5117501;27;20024;-56
2022/11/13 12:24:27;;;;;;;3.50;3.15;;;13.10;80.20;;;;;;5128973;27;20035;-58
2022/11/13 12:27:08;;;;;;;3.17;2.67;;;13.20;80.20;;;;;;5126716;27;20020;-58
2022/11/13 12:29:47;;;;;;;3.20;2.90;;;13.20;79.90;;;;;;5128226;27;20039;-56
2022/11/13 12:32:40;;;;;;;3.28;2.75;;;13.20;80.00;;;;;;5143709;27;20027;-58
2022/11/13 12:35:22;;;;;;;3.15;2.92;;;13.20;79.70;;;;;;5128107;27;20122;-57
2022/11/13 12:37:56;;;;;;;2.95;2.60;;;13.20;79.80;;;;;;5129683;27;20027;-57
2022/11/13 12:40:37;;;;;;;3.10;2.80;;;13.20;80.00;;;;;;5133347;27;20747;-56
2022/11/13 12:43:26;;;;;;;3.03;2.72;;;13.20;79.70;;;;;;5144724;27;20031;-55
2022/11/13 12:45:55;;;;;;;2.90;2.70;;;13.20;79.60;;;;;;5131562;27;20508;-57
2022/11/13 12:48:31;;;;;;;3.78;3.00;;;13.20;79.80;;;;;;5129236;27;20015;-57
2022/11/13 12:51:02;;;;;;;3.67;3.28;;;13.20;79.60;;;;;;5127687;27;20039;-58
2022/11/13 12:53:41;;;;;;;3.97;3.58;;;13.20;79.70;;;;;;5129754;27;20027;-57
2022/11/13 12:56:26;;;;;;;5.85;4.15;;;13.20;79.40;;;;;;5128872;27;20030;-57
2022/11/13 12:59:03;;;;;;;5.22;3.70;;;13.20;79.00;;;;;;5131187;27;20019;-57
2022/11/13 13:01:33;;;;;;;4.43;3.10;;;13.20;78.80;;;;;;5125543;27;20027;-57
2022/11/13 13:04:17;;;;;;;3.95;3.38;;;13.20;78.80;;;;;;5135820;27;20524;-57
2022/11/13 13:06:58;;;;;;;3.92;3.53;;;13.20;78.70;;;;;;5128718;27;20422;-56
2022/11/13 13:09:45;;;;;;;4.47;3.63;;;13.20;78.60;;;;;;5138324;27;20430;-56
2022/11/13 13:12:37;;;;;;;4.05;3.65;;;13.10;78.60;;;;;;5126567;27;20502;-56
2022/11/13 13:15:17;;;;;;;4.72;3.42;;;13.10;78.50;;;;;;5126308;27;20501;-57
2022/11/13 13:17:42;;;;;;;4.63;3.47;;;13.10;78.50;;;;;;5113389;27;20067;-57
2022/11/13 13:20:14;;;;;;;4.68;3.53;;;13.10;78.60;;;;;;5114697;27;20493;-56
2022/11/13 13:22:39;;;;;;;5.38;4.13;;;13.00;78.50;;;;;;5110528;27;20466;-57
2022/11/13 13:25:30;;;;;;;4.75;3.60;;;13.00;78.50;;;;;;5118182;27;20032;-57
2022/11/13 13:28:24;;;;;;;4.03;3.33;;;13.00;78.40;;;;;;5120372;27;20035;-57
2022/11/13 13:31:15;;;;;;;4.90;3.40;;;12.90;78.50;;;;;;5107229;27;20095;-57
2022/11/13 13:34:13;;;;;;;3.67;3.38;;;12.90;78.60;;;;;;5115242;28;20047;-56
2022/11/13 13:37:02;;;;;;;6.18;5.20;;;12.90;78.80;;;;;;5122637;27;20024;-57
2022/11/13 13:39:46;;;;;;;8.32;6.32;;;12.90;78.80;;;;;;5122180;27;20024;-57
2022/11/13 13:42:32;;;;;;;7.13;5.97;;;12.80;78.60;;;;;;5110706;27;20020;-57
2022/11/13 13:45:34;;;;;;;7.28;5.00;;;12.80;78.50;;;;;;5117762;27;20088;-57
2022/11/13 13:48:00;;;;;;;7.35;5.50;;;12.80;78.50;;;;;;5093116;28;20346;-58
2022/11/13 13:50:33;;;;;;;6.55;4.90;;;12.80;78.80;;;;;;5109180;27;20028;-57
2022/11/13 13:52:59;;;;;;;6.43;5.32;;;12.80;79.00;;;;;;5118840;27;20019;-57
2022/11/13 13:55:35;;;;;;;5.88;4.60;;;12.70;78.90;;;;;;5119474;27;20036;-57
2022/11/13 13:58:03;;;;;;;7.03;5.70;;;12.70;78.90;;;;;;5121059;27;20020;-58
2022/11/13 14:00:29;;;;;;;7.20;5.82;;;12.80;78.90;;;;;;5119349;27;20059;-57
2022/11/13 14:02:55;;;;;;;8.15;6.47;;;12.70;78.80;;;;;;5112835;27;20496;-57
2022/11/13 14:05:34;;;;;;;9.38;7.57;;;12.70;78.90;;;;;;5112802;27;20028;-56
2022/11/13 14:08:06;;;;;;;10.95;9.25;;;12.70;78.90;;;;;;5117557;27;20051;-56
2022/11/13 14:10:35;;;;;;;9.02;7.40;;;12.60;79.00;;;;;;5116924;27;20025;-56
2022/11/13 14:13:02;;;;;;;10.80;7.63;;;12.60;79.10;;;;;;5116035;27;20019;-57
2022/11/13 14:15:29;;;;;;;11.98;8.27;;;12.60;79.20;;;;;;5116032;27;20419;-56
2022/11/13 14:18:12;;;;;;;9.93;8.02;;;12.50;79.20;;;;;;5122585;27;20059;-56
2022/11/13 14:20:54;;;;;;;10.60;8.38;;;12.50;79.30;;;;;;5117033;27;20078;-56
2022/11/13 14:23:30;;;;;;;10.02;8.18;;;12.40;79.40;;;;;;5124937;27;20121;-56
2022/11/13 14:25:56;;;;;;;11.07;8.23;;;12.40;79.50;;;;;;5105334;27;20039;-56
2022/11/13 14:28:28;;;;;;;9.15;7.38;;;12.40;79.60;;;;;;5118531;27;20420;-57
2022/11/13 14:30:55;;;;;;;;;;;12.30;79.60;;;;;;5130126;27;20091;-57
2022/11/13 14:33:30;;;;;;;8.25;6.20;;;12.30;79.50;;;;;;5122593;27;20463;-57
2022/11/13 14:35:57;;;;;;;8.48;7.05;;;12.30;79.80;;;;;;5111884;27;20473;-56
2022/11/13 14:38:27;;;;;;;8.05;6.43;;;12.20;79.80;;;;;;5118281;27;20030;-56
2022/11/13 14:40:54;;;;;;;8.38;6.88;;;12.20;79.90;;;;;;5123732;27;20063;-56
2022/11/13 14:43:27;;;;;;;7.53;6.72;;;12.20;80.00;;;;;;5126117;27;20046;-56
2022/11/13 14:45:55;;;;;;;7.65;6.00;;;12.20;80.10;;;;;;5112517;28;20023;-57
2022/11/13 14:48:29;;;;;;;8.68;6.85;;;12.20;80.10;;;;;;5132539;27;20007;-59
2022/11/13 14:50:58;;;;;;;8.45;7.10;;;12.10;80.10;;;;;;5115746;27;20069;-57
2022/11/13 14:53:25;;;;;;;8.25;6.32;;;12.10;80.20;;;;;;5120361;27;20493;-57
2022/11/13 14:55:53;;;;;;;11.55;8.32;;;12.10;80.30;;;;;;5117471;27;20509;-56
2022/11/13 14:58:30;;;;;;;7.93;6.60;;;12.00;80.30;;;;;;5125343;27;20110;-57
2022/11/13 15:00:57;;;;;;;7.88;6.18;;;12.00;80.20;;;;;;5116757;27;20031;-57
2022/11/13 15:03:23;;;;;;;8.45;6.53;;;12.00;80.30;;;;;;5102938;28;20475;-56
2022/11/13 15:05:49;;;;;;;9.20;7.30;;;12.00;80.40;;;;;;5113203;28;20578;-58
2022/11/13 15:08:15;;;;;;;11.63;7.50;;;11.90;80.50;;;;;;5119516;27;20510;-56
2022/11/13 15:10:41;;;;;;;7.47;5.80;;;11.90;80.60;;;;;;5112034;28;20076;-57